Time;durP1;ratioP1;P1;durP2;ratioP2;P2;SDS_P1;SDS_P2;PMS_P1;PMS_P2;Temp;Humidity;BMP_temperature;BMP_pressure;BME280_temperature;BME280_humidity;BME280_pressure;Samples;Min_cycle;Max_cycle;Signal;HPM_P1;HPM_P2
2022/05/11 00:00:35;;;;;;;9.93;4.80;;;;;;;24.26;31.53;100729.53;5078097;28;20045;-69
2022/05/11 00:03:03;;;;;;;8.27;4.53;;;;;;;24.49;31.41;100725.81;5077765;28;20054;-69
2022/05/11 00:05:29;;;;;;;11.02;4.40;;;;;;;23.99;32.31;100724.78;5077367;28;20051;-69
2022/05/11 00:07:56;;;;;;;10.15;5.00;;;;;;;24.32;32.49;100725.81;5076500;28;21781;-69
2022/05/11 00:10:22;;;;;;;6.75;4.35;;;;;;;24.19;32.84;100725.06;5076519;28;20076;-69
2022/05/11 00:12:49;;;;;;;12.32;4.78;;;;;;;24.12;33.01;100729.06;5076835;28;20123;-70
2022/05/11 00:15:19;;;;;;;9.27;4.70;;;;;;;24.59;32.61;100731.44;5076794;28;20068;-70
2022/05/11 00:17:45;;;;;;;8.65;4.78;;;;;;;24.77;32.24;100730.28;5075966;28;20123;-69
2022/05/11 00:20:14;;;;;;;9.40;5.00;;;;;;;24.09;33.44;100730.41;5065079;28;20076;-69
2022/05/11 00:22:41;;;;;;;10.02;5.40;;;;;;;23.56;34.74;100728.94;5075521;28;20140;-69
2022/05/11 00:25:09;;;;;;;10.95;5.00;;;;;;;24.11;33.99;100732.88;5077136;28;20123;-69
2022/05/11 00:27:37;;;;;;;10.20;5.35;;;;;;;23.72;34.40;100730.88;5074076;28;20052;-69
2022/05/11 00:30:05;;;;;;;10.85;5.72;;;;;;;23.65;35.02;100724.72;5074196;28;20131;-69
2022/05/11 00:32:31;;;;;;;8.55;5.43;;;;;;;23.55;35.20;100727.28;5074771;28;20127;-69
2022/05/11 00:34:58;;;;;;;9.00;6.32;;;;;;;23.23;35.64;100722.31;5074186;28;20127;-69
2022/05/11 00:37:24;;;;;;;16.63;6.38;;;;;;;23.35;35.52;100715.94;5075271;28;20508;-69
2022/05/11 00:39:51;;;;;;;16.45;6.32;;;;;;;22.95;36.44;100712.16;5076323;28;20102;-70
2022/05/11 00:42:17;;;;;;;22.25;6.47;;;;;;;23.41;35.49;100723.19;5065324;28;20617;-70
2022/05/11 00:44:44;;;;;;;8.00;5.88;;;;;;;23.54;35.33;100746.66;5075162;28;20505;-70
2022/05/11 00:47:18;;;;;;;9.57;5.68;;;;;;;23.61;35.13;100756.41;5074931;28;20060;-70
2022/05/11 00:49:55;;;;;;;12.10;6.20;;;;;;;23.50;35.50;100760.88;5069905;28;20056;-69
2022/05/11 00:52:34;;;;;;;11.75;6.22;;;;;;;23.52;35.24;100755.16;5075984;28;20105;-69
2022/05/11 00:55:05;;;;;;;9.65;5.80;;;;;;;23.43;35.09;100754.72;5076093;28;20064;-69
2022/05/11 00:57:36;;;;;;;10.00;5.75;;;;;;;23.17;35.66;100749.81;5076604;28;20047;-69
2022/05/11 01:00:07;;;;;;;9.60;5.07;;;;;;;23.49;34.66;100753.72;5075611;28;20071;-69
2022/05/11 01:02:34;;;;;;;9.02;5.63;;;;;;;22.92;35.60;100740.00;5076759;28;20473;-69
2022/05/11 01:08:48;;;;;;;9.02;5.22;;;;;;;22.76;35.57;100738.00;5069379;28;20447;-69
2022/05/11 01:11:15;;;;;;;14.25;6.32;;;;;;;22.74;35.87;100737.41;5076537;28;20067;-69
2022/05/11 01:13:44;;;;;;;8.18;5.82;;;;;;;22.98;35.38;100735.44;5073527;28;20086;-69
2022/05/11 01:16:10;;;;;;;10.43;5.53;;;;;;;23.07;35.48;100725.78;5075673;28;20510;-69
2022/05/11 01:18:39;;;;;;;9.57;6.05;;;;;;;22.29;36.72;100714.28;5074741;28;20049;-69
2022/05/11 01:21:07;;;;;;;13.82;5.78;;;;;;;21.96;37.25;100709.38;5072086;28;20041;-69
2022/05/11 01:23:50;;;;;;;10.48;5.57;;;;;;;20.95;38.69;100697.41;5075639;28;20041;-69
2022/05/11 01:26:18;;;;;;;9.15;5.55;;;;;;;21.21;38.32;100693.50;5075973;28;20052;-70
2022/05/11 01:28:48;;;;;;;11.45;4.95;;;;;;;21.03;38.96;100685.34;5076406;28;20110;-70
2022/05/11 01:31:16;;;;;;;12.40;6.25;;;;;;;21.09;39.05;100698.06;5073020;28;20083;-69
2022/05/11 01:33:46;;;;;;;13.23;5.57;;;;;;;21.92;37.30;100700.00;5064065;28;20058;-70
2022/05/11 01:36:24;;;;;;;13.32;5.55;;;;;;;21.36;38.45;100701.28;5076102;28;20072;-69
2022/05/11 01:38:54;;;;;;;12.30;6.05;;;;;;;21.39;38.29;100698.09;5074945;28;20495;-69
2022/05/11 01:41:48;;;;;;;10.98;5.43;;;;;;;21.40;38.38;100690.75;5073234;28;20070;-70
2022/05/11 01:44:17;;;;;;;14.90;6.28;;;;;;;21.35;38.71;100686.78;5072815;28;20058;-69
2022/05/11 01:46:45;;;;;;;6.82;5.43;;;;;;;21.04;39.14;100679.69;5073315;28;20131;-69
2022/05/11 01:49:12;;;;;;;8.05;5.10;;;;;;;21.09;39.31;100668.91;5073025;28;20055;-69
2022/05/11 01:51:38;;;;;;;10.38;6.07;;;;;;;21.42;38.69;100672.22;5072210;28;20135;-69
2022/05/11 01:54:04;;;;;;;8.23;5.55;;;;;;;21.05;39.42;100664.13;5073045;28;20041;-69
2022/05/11 01:56:31;;;;;;;12.73;6.13;;;;;;;20.83;39.75;100664.63;5073811;28;20068;-69
2022/05/11 01:58:57;;;;;;;7.95;6.07;;;;;;;21.04;39.69;100660.59;5072746;28;20503;-69
2022/05/11 02:01:26;;;;;;;10.98;6.10;;;;;;;21.80;38.11;100667.22;5072527;28;20045;-69
2022/05/11 02:03:53;;;;;;;7.75;5.22;;;;;;;21.54;38.51;100660.28;5074745;28;20048;-69
2022/05/11 02:09:06;;;;;;;8.27;6.05;;;;;;;21.12;39.51;100660.28;5076782;28;20469;-69
2022/05/11 02:11:33;;;;;;;9.45;6.03;;;;;;;21.53;38.94;100664.06;5076221;28;20084;-69
2022/05/11 02:14:00;;;;;;;8.27;5.80;;;;;;;21.93;38.19;100662.59;5076688;28;20112;-69
2022/05/11 02:16:26;;;;;;;12.45;5.85;;;;;;;22.23;37.60;100663.31;5065925;28;20067;-70
2022/05/11 02:18:55;;;;;;;12.82;5.82;;;;;;;22.26;37.28;100662.81;5074285;28;20052;-70
2022/05/11 02:21:23;;;;;;;6.72;5.18;;;;;;;21.68;38.51;100665.53;5074965;28;20110;-69
2022/05/11 02:23:51;;;;;;;9.43;5.65;;;;;;;22.44;37.01;100669.22;5074854;28;20075;-69
2022/05/11 02:26:19;;;;;;;16.63;6.72;;;;;;;22.18;37.71;100668.63;5073872;28;20530;-70
2022/05/11 02:28:49;;;;;;;12.10;5.18;;;;;;;22.67;36.33;100691.09;5074344;28;20056;-69
2022/05/11 02:31:17;;;;;;;10.02;5.88;;;;;;;22.74;36.28;100680.84;5075133;28;20072;-69
2022/05/11 02:33:43;;;;;;;12.60;6.28;;;;;;;23.02;35.74;100685.50;5055547;28;20049;-69
2022/05/11 02:36:10;;;;;;;10.27;6.22;;;;;;;22.99;35.60;100690.63;5070061;28;20127;-69
2022/05/11 02:38:40;;;;;;;9.73;5.57;;;;;;;23.11;35.42;100696.84;5073206;28;20102;-70
2022/05/11 02:41:07;;;;;;;7.45;5.47;;;;;;;23.35;35.01;100691.31;5072784;28;20469;-69
2022/05/11 02:43:34;;;;;;;8.90;5.78;;;;;;;23.33;34.83;100697.06;5072967;28;20136;-69
2022/05/11 02:46:00;;;;;;;10.15;5.45;;;;;;;23.20;35.20;100700.09;5072940;28;20114;-69
2022/05/11 02:48:30;;;;;;;8.43;5.40;;;;;;;23.36;35.02;100702.00;5072152;28;20124;-69
2022/05/11 02:50:57;;;;;;;8.20;5.50;;;;;;;23.38;34.70;100713.56;5070796;28;20071;-69
2022/05/11 02:53:26;;;;;;;9.13;5.55;;;;;;;23.36;34.91;100712.13;5073173;28;20055;-69
2022/05/11 02:55:54;;;;;;;11.52;5.35;;;;;;;23.26;34.64;100718.25;5073675;28;20438;-70
2022/05/11 02:58:23;;;;;;;9.18;5.80;;;;;;;23.18;34.76;100715.91;5073520;28;20448;-69
2022/05/11 03:00:51;;;;;;;10.80;5.75;;;;;;;22.83;35.22;100707.78;5073160;28;20071;-69
2022/05/11 03:03:19;;;;;;;11.70;6.05;;;;;;;23.08;34.79;100708.28;5072595;28;20040;-69
2022/05/11 03:05:47;;;;;;;8.90;5.43;;;;;;;23.09;34.73;100711.84;5073611;28;20079;-69
2022/05/11 03:08:14;;;;;;;8.88;5.70;;;;;;;22.97;35.44;100722.84;5072839;28;20081;-69
2022/05/11 03:10:40;;;;;;;8.35;5.75;;;;;;;23.05;35.08;100727.94;5073948;28;20048;-69
2022/05/11 03:13:08;;;;;;;11.05;5.88;;;;;;;21.78;37.61;100728.56;5078420;28;20453;-69
2022/05/11 03:15:35;;;;;;;9.73;5.72;;;;;;;22.11;37.16;100722.56;5080206;28;20044;-69
2022/05/11 03:18:03;;;;;;;19.27;6.43;;;;;;;22.96;36.08;100724.75;5079574;28;20476;-70
2022/05/11 03:20:30;;;;;;;11.15;6.05;;;;;;;23.32;35.29;100730.13;5080416;28;20049;-69
2022/05/11 03:22:56;;;;;;;13.60;6.05;;;;;;;23.42;35.69;100716.63;5078778;28;20049;-69
2022/05/11 03:25:25;;;;;;;14.93;6.70;;;;;;;23.84;34.14;100717.09;5068147;28;20044;-70
2022/05/11 03:27:53;;;;;;;10.18;6.47;;;;;;;22.56;36.38;100724.72;5081284;28;20507;-69
2022/05/11 03:30:20;;;;;;;12.40;6.93;;;;;;;22.49;37.14;100727.56;5072551;28;20044;-69
2022/05/11 03:35:31;;;;;;;9.10;6.53;;;;;;;22.96;36.20;100719.28;5078481;28;20097;-70
2022/05/11 03:37:58;;;;;;;12.02;7.40;;;;;;;23.16;35.78;100716.16;5078821;28;20079;-70
2022/05/11 03:40:24;;;;;;;17.25;7.68;;;;;;;23.04;35.51;100724.38;5077605;28;20119;-69
2022/05/11 03:42:51;;;;;;;14.57;6.97;;;;;;;23.15;35.03;100725.44;5078520;28;20117;-69
2022/05/11 03:45:24;;;;;;;9.98;6.35;;;;;;;23.27;35.24;100734.44;5069931;28;20099;-69
2022/05/11 03:47:51;;;;;;;11.23;5.68;;;;;;;22.89;36.17;100737.75;5079113;28;20136;-69
2022/05/11 03:50:22;;;;;;;10.55;6.22;;;;;;;23.11;34.86;100739.81;5080290;28;20044;-68
2022/05/11 03:52:50;;;;;;;14.03;6.47;;;;;;;23.03;35.07;100733.66;5079871;28;20044;-69
2022/05/11 03:55:18;;;;;;;12.02;6.45;;;;;;;23.08;34.70;100740.31;5078330;28;20056;-69
2022/05/11 03:57:44;;;;;;;9.50;6.05;;;;;;;23.19;34.67;100740.31;5068585;28;20052;-68
2022/05/11 04:00:21;;;;;;;11.20;6.28;;;;;;;23.42;34.58;100749.47;5077419;28;20049;-69
2022/05/11 04:02:49;;;;;;;9.15;5.65;;;;;;;23.11;35.26;100751.59;5077640;28;20092;-68
2022/05/11 04:05:17;;;;;;;7.78;5.80;;;;;;;23.08;35.59;100746.59;5077727;28;20044;-69
2022/05/11 04:07:43;;;;;;;8.13;6.07;;;;;;;23.17;35.30;100749.81;5076365;28;20060;-69
2022/05/11 04:10:11;;;;;;;12.68;6.47;;;;;;;23.18;35.32;100748.75;5076335;28;20071;-68
2022/05/11 04:12:37;;;;;;;11.75;6.10;;;;;;;23.25;35.49;100744.78;5076139;28;20040;-69
2022/05/11 04:15:05;;;;;;;14.10;6.00;;;;;;;23.22;35.65;100750.75;5075769;28;20110;-68
2022/05/11 04:17:33;;;;;;;11.05;5.53;;;;;;;23.10;35.90;100749.94;5076874;28;20040;-69
2022/05/11 04:19:59;;;;;;;9.27;6.03;;;;;;;23.17;36.27;100752.56;5076351;28;21419;-69
2022/05/11 04:22:25;;;;;;;9.43;6.43;;;;;;;23.32;36.32;100752.03;5075343;28;20497;-69
2022/05/11 04:24:52;;;;;;;15.52;6.22;;;;;;;23.37;36.58;100749.41;5074343;28;20118;-69
2022/05/11 04:27:19;;;;;;;10.70;6.28;;;;;;;23.44;36.52;100750.91;5074521;28;20066;-69
2022/05/11 04:29:45;;;;;;;12.52;7.05;;;;;;;23.51;36.30;100739.81;5075028;28;20493;-69
2022/05/11 04:32:14;;;;;;;13.23;7.05;;;;;;;23.26;36.58;100751.09;5074617;28;20055;-69
2022/05/11 04:34:41;;;;;;;9.70;6.40;;;;;;;23.40;36.88;100748.88;5075795;28;20044;-69
2022/05/11 04:37:09;;;;;;;14.20;6.88;;;;;;;23.33;37.05;100743.59;5075953;28;20087;-69
2022/05/11 04:39:36;;;;;;;9.90;6.72;;;;;;;23.32;37.14;100741.06;5075291;28;20105;-69
2022/05/11 04:42:03;;;;;;;10.70;6.93;;;;;;;23.44;36.93;100739.97;5075759;28;20055;-69
2022/05/11 04:44:29;;;;;;;12.02;7.45;;;;;;;23.56;37.21;100734.41;5075369;28;20079;-69
2022/05/11 04:46:58;;;;;;;12.57;7.70;;;;;;;23.53;36.96;100732.16;5077839;28;20094;-69
2022/05/11 04:49:25;;;;;;;14.95;7.32;;;;;;;23.47;37.50;100733.16;5079200;28;20052;-69
2022/05/11 04:51:59;;;;;;;14.02;7.57;;;;;;;23.25;37.83;100736.56;5076569;28;20067;-69
2022/05/11 04:54:26;;;;;;;21.75;13.00;;;;;;;23.29;37.50;100736.91;5075464;28;20045;-69
2022/05/11 04:56:53;;;;;;;16.00;11.13;;;;;;;23.48;37.48;100723.88;5076001;28;20534;-69
2022/05/11 04:59:21;;;;;;;16.52;9.57;;;;;;;23.34;37.47;100731.56;5076208;28;20072;-69
2022/05/11 05:01:48;;;;;;;12.35;8.10;;;;;;;23.38;37.46;100735.44;5075737;28;20052;-69
2022/05/11 05:04:15;;;;;;;11.30;7.97;;;;;;;23.32;37.29;100735.59;5073914;28;20044;-69
2022/05/11 05:06:42;;;;;;;13.73;8.18;;;;;;;23.32;37.72;100741.06;5073811;28;20123;-69
2022/05/11 05:09:09;;;;;;;9.88;7.97;;;;;;;23.39;37.69;100736.28;5076414;28;20044;-69
2022/05/11 05:11:35;;;;;;;11.25;8.00;;;;;;;23.22;37.92;100734.31;5076837;28;20065;-69
2022/05/11 05:14:04;;;;;;;12.25;7.97;;;;;;;23.15;37.52;100735.53;5056512;28;20061;-69
2022/05/11 05:16:33;;;;;;;15.60;8.75;;;;;;;23.46;37.05;100735.03;5076846;28;20115;-69
2022/05/11 05:19:00;;;;;;;21.75;8.60;;;;;;;23.27;38.18;100734.44;5076264;28;20105;-70
2022/05/11 05:21:27;;;;;;;23.50;8.32;;;;;;;23.29;38.05;100734.19;5076204;28;20100;-69
2022/05/11 05:23:53;;;;;;;18.42;8.13;;;;;;;23.25;37.89;100720.16;5076221;28;20353;-69
2022/05/11 05:26:21;;;;;;;16.27;8.52;;;;;;;23.41;36.92;100715.81;5075614;28;20077;-69
2022/05/11 05:31:32;;;;;;;10.05;7.82;;;;;;;23.33;37.09;100727.16;5076031;28;20407;-69
2022/05/11 05:34:02;;;;;;;14.27;8.60;;;;;;;22.69;37.96;100721.72;5075138;28;20048;-70
2022/05/11 05:36:36;;;;;;;16.23;8.73;;;;;;;23.15;37.24;100719.94;5075319;28;20041;-69
2022/05/11 05:39:04;;;;;;;14.40;8.35;;;;;;;23.34;36.72;100728.81;5076147;28;20069;-68
2022/05/11 05:41:31;;;;;;;16.13;8.90;;;;;;;22.92;37.62;100736.44;5076110;28;20468;-70
2022/05/11 05:43:58;;;;;;;22.25;8.82;;;;;;;23.85;35.53;100739.84;5074424;28;20040;-69
2022/05/11 05:46:24;;;;;;;15.65;7.70;;;;;;;23.48;36.10;100749.34;5075074;28;20048;-69
2022/05/11 05:48:51;;;;;;;15.00;9.23;;;;;;;23.42;36.57;100746.75;5070933;28;20072;-69
2022/05/11 05:51:20;;;;;;;14.98;8.05;;;;;;;23.15;37.01;100736.38;5074707;28;20135;-69
2022/05/11 05:53:46;;;;;;;15.90;7.95;;;;;;;23.55;37.06;100734.66;5075250;28;20052;-69
2022/05/11 05:56:13;;;;;;;13.40;8.88;;;;;;;23.77;36.91;100740.28;5076614;28;20055;-68
2022/05/11 05:58:41;;;;;;;19.23;9.85;;;;;;;23.55;37.46;100734.66;5076461;28;20102;-69
2022/05/11 06:01:08;;;;;;;22.65;9.60;;;;;;;23.55;37.38;100734.66;5075378;28;20036;-69
2022/05/11 06:03:36;;;;;;;12.68;9.48;;;;;;;23.39;38.11;100731.63;5075120;28;20485;-69
2022/05/11 06:06:05;;;;;;;15.43;9.30;;;;;;;23.44;38.31;100733.66;5074308;28;20037;-69
2022/05/11 06:08:31;;;;;;;17.23;9.82;;;;;;;23.58;38.17;100732.25;5072092;28;20048;-69
2022/05/11 06:10:58;;;;;;;13.82;9.60;;;;;;;23.53;38.20;100729.41;5072821;28;20056;-69
2022/05/11 06:13:26;;;;;;;24.25;9.20;;;;;;;23.04;39.18;100739.97;5071371;28;20127;-69
2022/05/11 06:15:54;;;;;;;25.52;9.75;;;;;;;23.37;38.32;100735.72;5074206;28;20047;-69
2022/05/11 06:18:23;;;;;;;14.93;9.93;;;;;;;23.17;38.77;100733.41;5071702;28;20131;-69
2022/05/11 06:20:51;;;;;;;15.05;10.02;;;;;;;23.15;39.26;100730.91;5071646;28;20044;-68
2022/05/11 06:23:19;;;;;;;10.57;9.23;;;;;;;22.29;40.48;100719.75;5072246;28;20049;-68
2022/05/11 06:25:49;;;;;;;15.18;9.30;;;;;;;22.39;40.62;100715.56;5073919;28;20089;-69
2022/05/11 06:28:16;;;;;;;17.05;9.82;;;;;;;22.57;40.14;100704.53;5073654;28;20477;-69
2022/05/11 06:31:02;;;;;;;16.27;9.60;;;;;;;22.89;39.68;100701.34;5073558;28;20146;-74
2022/05/11 06:33:32;;;;;;;16.88;9.85;;;;;;;23.41;39.06;100702.13;5073833;28;20060;-75
2022/05/11 06:36:04;;;;;;;14.70;9.82;;;;;;;22.99;39.39;100696.09;5078675;28;20079;-74
2022/05/11 06:38:31;;;;;;;19.77;9.48;;;;;;;22.84;40.20;100679.34;5077282;28;20123;-74
2022/05/11 06:41:05;;;;;;;18.23;10.07;;;;;;;22.73;40.28;100679.16;5076428;28;20076;-74
2022/05/11 06:43:31;;;;;;;12.35;9.07;;;;;;;23.27;39.43;100690.63;5075737;28;20131;-74
2022/05/11 06:45:59;;;;;;;13.15;9.07;;;;;;;23.70;38.12;100683.72;5077507;28;20044;-72
2022/05/11 06:48:25;;;;;;;21.70;10.88;;;;;;;23.86;38.50;100690.31;5079021;28;20517;-74
2022/05/11 06:50:52;;;;;;;17.65;9.48;;;;;;;23.47;39.06;100689.34;5060134;28;20051;-74
2022/05/11 06:53:19;;;;;;;15.88;9.27;;;;;;;23.58;38.39;100693.94;5084081;28;20044;-73
2022/05/11 07:01:15;;;;;;;20.45;9.18;;;;;;;23.72;37.76;100683.47;5076541;28;20057;-73
2022/05/11 07:03:42;;;;;;;16.38;9.10;;;;;;;24.02;37.26;100688.63;5075907;28;20481;-73
2022/05/11 07:06:08;;;;;;;12.95;9.48;;;;;;;24.04;37.44;100677.41;5077345;28;20127;-73
2022/05/11 07:08:40;;;;;;;13.27;9.02;;;;;;;23.24;39.11;100676.63;5068267;28;20044;-73
2022/05/11 07:13:55;;;;;;;14.10;8.10;;;;;;;24.09;36.70;100659.16;5075967;28;20123;-71
2022/05/11 07:16:23;;;;;;;15.75;8.00;;;;;;;23.90;36.39;100661.31;5074596;28;20477;-72
2022/05/11 07:18:53;;;;;;;15.32;7.63;;;;;;;24.54;35.20;100655.41;5074592;28;20075;-71
2022/05/11 07:21:19;;;;;;;10.65;7.22;;;;;;;23.77;36.40;100641.66;5076416;28;20420;-70
2022/05/11 07:23:46;;;;;;;14.38;7.10;;;;;;;24.27;35.02;100648.97;5076365;28;20480;-71
2022/05/11 07:26:12;;;;;;;11.35;6.70;;;;;;;24.67;34.77;100643.19;5076194;28;20135;-72
2022/05/11 07:28:40;;;;;;;11.65;6.25;;;;;;;24.31;35.56;100639.16;5076893;28;20055;-72
2022/05/11 07:31:07;;;;;;;15.60;7.20;;;;;;;24.67;34.25;100638.53;5066640;28;20044;-71
2022/05/11 07:33:33;;;;;;;8.07;5.82;;;;;;;24.01;35.06;100637.66;5076563;28;20044;-70
2022/05/11 07:36:00;;;;;;;7.18;5.90;;;;;;;25.33;32.71;100640.34;5076423;28;20053;-71
2022/05/11 07:38:26;;;;;;;9.18;6.10;;;;;;;25.13;32.57;100635.50;5075895;28;20060;-70
2022/05/11 07:40:53;;;;;;;8.98;5.15;;;;;;;25.34;32.28;100625.56;5077361;28;20040;-71
2022/05/11 07:43:20;;;;;;;13.73;5.82;;;;;;;24.00;33.65;100627.78;5077730;28;20055;-69
2022/05/11 07:45:47;;;;;;;10.95;5.13;;;;;;;24.51;32.89;100623.00;5079466;28;20045;-71
2022/05/11 07:48:13;;;;;;;10.57;5.75;;;;;;;25.43;31.35;100629.47;5076277;28;20072;-70
2022/05/11 07:50:40;;;;;;;10.25;4.95;;;;;;;25.72;30.83;100626.41;5075610;28;20048;-71
2022/05/11 07:53:06;;;;;;;12.13;4.90;;;;;;;24.96;31.84;100608.16;5074840;28;20488;-70
2022/05/11 07:55:34;;;;;;;7.75;5.10;;;;;;;24.17;32.51;100617.59;5064983;28;20433;-70
2022/05/11 08:00:45;;;;;;;9.40;4.80;;;;;;;25.52;30.91;100616.91;5074795;28;20072;-70
2022/05/11 08:03:12;;;;;;;8.98;5.40;;;;;;;25.29;31.11;100607.09;5075105;28;20151;-70
2022/05/11 08:05:39;;;;;;;8.30;4.75;;;;;;;25.80;30.70;100606.69;5074023;28;20117;-71
2022/05/11 08:08:08;;;;;;;9.15;5.40;;;;;;;25.76;30.64;100605.56;5075271;28;20044;-70
2022/05/11 08:10:37;;;;;;;8.18;5.38;;;;;;;25.66;30.42;100611.00;5073265;28;20048;-70
2022/05/11 08:13:05;;;;;;;9.98;5.10;;;;;;;26.37;29.26;100594.91;5075381;28;20064;-70
2022/05/11 08:15:34;;;;;;;8.68;5.30;;;;;;;25.41;30.80;100606.09;5075998;28;20131;-69
2022/05/11 08:18:01;;;;;;;9.38;5.13;;;;;;;24.32;32.09;100597.78;5076750;28;20071;-68
2022/05/11 08:20:32;;;;;;;10.20;5.03;;;;;;;26.02;30.14;100593.63;5074596;28;20064;-69
2022/05/11 08:23:00;;;;;;;8.88;5.43;;;;;;;25.74;30.65;100591.25;5077474;28;20542;-69
2022/05/11 08:25:28;;;;;;;7.97;5.32;;;;;;;24.82;31.73;100588.53;5076242;28;20048;-69
2022/05/11 08:27:56;;;;;;;11.77;5.32;;;;;;;25.31;31.51;100574.72;5076358;28;20044;-69
2022/05/11 08:33:23;;;;;;;11.02;5.65;;;;;;;25.12;31.15;100577.03;5077228;28;20056;-69
2022/05/11 08:36:14;;;;;;;10.27;4.95;;;;;;;25.13;30.75;100575.94;5076163;28;20050;-69
2022/05/11 08:38:44;;;;;;;12.77;4.70;;;;;;;24.68;31.61;100571.63;5075646;28;20048;-69
2022/05/11 08:41:27;;;;;;;13.45;5.60;;;;;;;24.47;31.66;100571.66;5064950;28;20048;-68
2022/05/11 08:44:11;;;;;;;11.45;5.30;;;;;;;24.36;31.98;100567.94;5077721;28;20044;-69
2022/05/11 08:46:47;;;;;;;9.57;5.45;;;;;;;24.29;32.17;100564.56;5076031;28;20381;-70
2022/05/11 08:49:23;;;;;;;12.38;5.43;;;;;;;24.94;31.04;100543.63;5077082;28;20041;-69
2022/05/11 08:51:57;;;;;;;10.65;5.45;;;;;;;25.44;30.55;100554.19;5076392;28;20040;-69
2022/05/11 08:54:30;;;;;;;14.57;5.50;;;;;;;26.40;29.15;100550.38;5078592;28;20047;-70
2022/05/11 08:56:56;;;;;;;10.38;5.90;;;;;;;25.63;30.11;100548.34;5076526;28;20136;-69
2022/05/11 08:59:28;;;;;;;11.32;5.97;;;;;;;25.20;30.71;100547.44;5076273;28;20071;-69
2022/05/11 09:02:07;;;;;;;;;;;;;;;25.76;30.23;100539.63;5077649;28;20044;-70
2022/05/11 09:04:43;;;;;;;21.35;6.68;;;;;;;24.52;32.12;100536.06;5076733;28;20402;-69
2022/05/11 09:07:10;;;;;;;12.23;6.38;;;;;;;25.08;31.09;100536.63;5076682;28;20045;-70
2022/05/11 09:09:38;;;;;;;16.50;5.60;;;;;;;25.97;29.76;100524.91;5076261;28;20053;-70
2022/05/11 09:12:06;;;;;;;7.28;6.00;;;;;;;25.57;30.68;100534.53;5075530;28;20499;-70
2022/05/11 09:14:40;;;;;;;9.65;6.10;;;;;;;25.98;29.62;100536.72;5075449;28;20354;-69
2022/05/11 09:17:32;;;;;;;12.27;6.20;;;;;;;25.28;30.82;100534.06;5075559;28;20467;-70
2022/05/11 09:20:09;;;;;;;13.75;6.38;;;;;;;25.91;30.14;100525.13;5075803;28;20105;-70
2022/05/11 09:22:41;;;;;;;11.60;6.18;;;;;;;26.14;29.95;100518.38;5074229;28;20049;-69
2022/05/11 09:25:30;;;;;;;12.13;6.43;;;;;;;27.01;28.82;100516.66;5074396;28;20044;-70
2022/05/11 09:28:15;;;;;;;10.38;6.40;;;;;;;27.66;27.48;100511.34;5074478;28;20048;-70
2022/05/11 09:30:55;;;;;;;10.75;5.95;;;;;;;27.60;27.33;100499.53;5073977;28;20068;-70
2022/05/11 09:33:24;;;;;;;13.95;5.63;;;;;;;28.92;25.73;100503.56;5073384;28;20532;-70
2022/05/11 09:35:51;;;;;;;11.27;5.80;;;;;;;27.89;26.79;100502.50;5075777;28;20135;-70
2022/05/11 09:38:42;;;;;;;6.13;5.50;;;;;;;28.72;26.02;100500.94;5072931;28;20048;-70
2022/05/11 09:41:12;;;;;;;;;;;;;;;28.94;25.37;100499.66;5073891;28;20068;-70
2022/05/11 09:43:42;;;;;;;9.18;6.18;;;;;;;29.72;24.33;100491.22;5075964;28;19931;-70
2022/05/11 09:46:22;;;;;;;31.45;6.28;;;;;;;30.27;23.62;100480.56;5074811;28;20140;-69
2022/05/11 09:49:09;;;;;;;9.38;5.60;;;;;;;29.78;24.44;100486.47;5073743;28;20369;-71
2022/05/11 09:51:42;;;;;;;9.95;5.88;;;;;;;30.19;24.27;100472.94;5074301;28;20055;-70
2022/05/11 09:54:28;;;;;;;8.32;5.32;;;;;;;28.73;25.28;100469.47;5073819;28;20484;-70
2022/05/11 09:57:01;;;;;;;9.77;5.15;;;;;;;29.79;24.31;100465.97;5074741;28;20060;-71
2022/05/11 09:59:38;;;;;;;14.18;5.93;;;;;;;29.82;24.30;100454.34;5074131;28;20533;-71
2022/05/11 10:02:23;;;;;;;7.57;4.70;;;;;;;29.15;24.56;100459.75;5072326;28;20455;-71
2022/05/11 10:05:08;;;;;;;20.08;4.85;;;;;;;30.04;23.89;100457.38;5074680;28;20527;-72
2022/05/11 10:07:39;;;;;;;10.38;4.65;;;;;;;30.12;23.19;100439.31;5074888;28;20436;-69
2022/05/11 10:10:12;;;;;;;13.13;4.40;;;;;;;31.10;22.57;100442.19;5074091;28;20459;-71
2022/05/11 10:12:41;;;;;;;12.65;4.43;;;;;;;31.54;22.16;100437.19;5073264;28;20059;-71
2022/05/11 10:24:10;;;;;;;6.60;4.00;;;;;;;32.33;20.41;100407.16;5074136;28;20135;-71
2022/05/11 10:26:46;;;;;;;12.25;4.35;;;;;;;31.04;22.20;100404.59;5076275;28;20551;-71
2022/05/11 10:29:52;;;;;;;8.75;4.10;;;;;;;30.91;22.17;100399.84;5076481;28;20044;-71
2022/05/11 10:32:27;;;;;;;18.90;4.05;;;;;;;31.38;20.96;100389.53;5074876;28;20044;-72
2022/05/11 10:35:18;;;;;;;10.80;4.00;;;;;;;30.95;21.76;100390.63;5074999;28;20068;-71
2022/05/11 10:38:19;;;;;;;13.07;3.67;;;;;;;31.03;21.44;100375.28;5074462;28;20109;-70
2022/05/11 10:41:03;;;;;;;11.73;3.60;;;;;;;31.82;21.23;100390.84;5073986;28;20052;-70
2022/05/11 10:43:43;;;;;;;7.47;3.88;;;;;;;30.42;22.49;100381.81;5075995;28;20124;-72
2022/05/11 10:46:47;;;;;;;10.30;3.83;;;;;;;31.72;21.22;100381.63;5074633;28;20040;-71
2022/05/11 10:49:18;;;;;;;9.38;3.80;;;;;;;30.77;21.70;100374.88;5074289;28;20135;-71
2022/05/11 10:52:06;;;;;;;13.57;3.72;;;;;;;30.99;21.72;100374.22;5074697;28;20132;-71
2022/05/11 10:54:47;;;;;;;10.73;3.38;;;;;;;30.42;22.09;100371.56;5073124;28;20406;-71
2022/05/11 10:57:42;;;;;;;10.10;3.60;;;;;;;30.22;22.05;100358.88;5072054;28;20123;-71
2022/05/11 11:00:22;;;;;;;7.60;3.50;;;;;;;30.39;22.09;100365.81;5055996;28;20064;-71
2022/05/11 11:03:17;;;;;;;10.43;3.92;;;;;;;30.21;22.59;100362.78;5073812;28;20048;-72
2022/05/11 11:09:04;;;;;;;16.95;3.85;;;;;;;29.37;23.35;100344.00;5074328;28;20043;-72
2022/05/11 11:11:52;;;;;;;5.82;3.50;;;;;;;30.02;22.90;100342.63;5075387;28;20048;-72
2022/05/11 11:14:41;;;;;;;7.28;4.10;;;;;;;30.64;22.13;100334.97;5073013;28;20503;-71
2022/05/11 11:17:21;;;;;;;13.02;3.33;;;;;;;31.72;20.87;100323.38;5075474;28;20450;-73
2022/05/11 11:19:54;;;;;;;18.60;4.38;;;;;;;31.38;21.03;100320.25;5073812;28;20056;-73
2022/05/11 11:22:20;;;;;;;10.15;3.50;;;;;;;30.46;21.28;100322.78;5074205;28;20136;-72
2022/05/11 11:25:12;;;;;;;13.30;3.50;;;;;;;30.91;20.60;100328.63;5073808;28;20060;-73
2022/05/11 11:28:03;;;;;;;14.15;3.70;;;;;;;31.63;20.05;100322.47;5069253;28;20144;-74
2022/05/11 11:30:29;;;;;;;12.07;3.10;;;;;;;31.52;20.31;100312.75;5073594;28;20040;-71
2022/05/11 11:33:23;;;;;;;11.73;3.40;;;;;;;32.12;19.96;100318.03;5076583;28;20060;-72
2022/05/11 11:36:28;;;;;;;13.07;2.85;;;;;;;31.54;20.29;100318.81;5069149;28;20048;-72
2022/05/11 11:38:59;;;;;;;6.95;3.13;;;;;;;30.75;20.79;100302.38;5076653;28;20055;-72
2022/05/11 11:41:30;;;;;;;8.30;3.53;;;;;;;30.71;20.45;100312.41;5077661;28;20123;-70
2022/05/11 11:44:00;;;;;;;13.38;3.33;;;;;;;31.44;19.79;100303.19;5067882;28;20428;-71
2022/05/11 11:46:33;;;;;;;16.85;3.83;;;;;;;31.01;19.83;100303.53;5071596;28;20075;-73
2022/05/11 11:49:06;;;;;;;11.73;2.90;;;;;;;31.33;19.07;100296.22;5076884;28;20067;-72
2022/05/11 11:51:50;;;;;;;13.77;2.53;;;;;;;32.17;17.98;100281.84;5075589;28;20044;-71
2022/05/11 11:54:29;;;;;;;5.03;2.47;;;;;;;30.38;19.95;100292.22;5064605;28;20064;-71
2022/05/11 11:56:58;;;;;;;10.10;2.65;;;;;;;29.71;19.85;100293.28;5076974;28;20045;-72
2022/05/11 11:59:24;;;;;;;6.18;2.47;;;;;;;30.53;19.02;100283.66;5075594;28;22022;-71
2022/05/11 12:01:57;;;;;;;13.10;2.65;;;;;;;30.63;18.55;100288.19;5077597;28;20151;-71
2022/05/11 12:04:29;;;;;;;3.47;2.00;;;;;;;29.81;18.61;100287.59;5077884;28;20045;-71
2022/05/11 12:15:33;;;;;;;7.43;2.75;;;;;;;30.44;19.23;100261.41;5077180;28;20123;-72
2022/05/11 12:18:01;;;;;;;9.30;2.38;;;;;;;30.95;18.35;100256.81;5077387;28;20040;-72
2022/05/11 12:20:42;;;;;;;9.00;2.40;;;;;;;30.05;19.20;100278.38;5079602;28;20123;-71
2022/05/11 12:23:26;;;;;;;18.13;3.35;;;;;;;30.02;19.27;100273.50;5079592;28;20067;-72